This is the latest recevied weather packets stored in our database for station/object Dunnningn. If no packets are shown the sender has not sent any weather packets the latest 10 day(s).
| Time | Temp. | Humidity | Pressure | Rain* | Wind** | Luminosity | Snow |
|---|---|---|---|---|---|---|---|
| 1777536137 | 10.56° C | 43% | 1023.9 hPa | 0 mm | - | - | - |
| 1777534332 | 9.44° C | 44% | 1023.7 hPa | 0 mm | - | - | - |
| 1777532532 | 8.33° C | 46% | 1023.8 hPa | 0 mm | - | - | - |
| 1777530736 | 5° C | 56% | 1023.9 hPa | 0 mm | - | - | - |
| 1777528931 | 4.44° C | 58% | 1023.9 hPa | 0 mm | - | - | - |
| 1777527131 | 3.33° C | 62% | 1023.8 hPa | 0 mm | - | - | - |
| 1777525331 | 3.33° C | 62% | 1023.7 hPa | 0 mm | - | - | - |
| 1777523532 | 3.33° C | 61% | 1023.5 hPa | 0 mm | - | - | - |
| 1777521732 | 3.89° C | 60% | 1023.4 hPa | 0 mm | - | - | - |
| 1777519931 | 4.44° C | 58% | 1023.5 hPa | 0 mm | - | - | - |
| 1777518132 | 5° C | 56% | 1023.4 hPa | 0 mm | - | - | - |
| 1777514532 | 6.11° C | 51% | 1023.2 hPa | 0 mm | - | - | - |
| 1777512731 | 6.67° C | 49% | 1022.9 hPa | 0 mm | - | - | - |
| 1777510932 | 7.22° C | 48% | 1022.9 hPa | 0 mm | - | - | - |
| 1777509129 | 7.78° C | 47% | 1022.7 hPa | 0 mm | - | - | - |
| 1777507330 | 7.78° C | 47% | 1022.5 hPa | 0 mm | - | - | - |
| 1777505529 | 7.78° C | 46% | 1022.5 hPa | 0 mm | - | - | - |
| 1777503729 | 8.33° C | 46% | 1022.6 hPa | 0 mm | - | - | - |
| 1777501931 | 8.33° C | 46% | 1022.5 hPa | 0 mm | - | - | - |
| 1777498329 | 9.44° C | 46% | 1022.2 hPa | 0 mm | - | - | - |
| 1777496530 | 10° C | 45% | 1021.8 hPa | 0 mm | - | - | - |
| 1777494730 | 10.56° C | 43% | 1021.5 hPa | 0 mm | - | - | - |
| 1777492929 | 11.11° C | 41% | 1021.3 hPa | 0 mm | - | - | - |
| 1777491129 | 11.67° C | 40% | 1020.7 hPa | 0 mm | - | - | - |
| 1777489330 | 12.78° C | 39% | 1020.6 hPa | 0 mm | - | - | - |
* Rain since midnight (hover to see other rain measurements)
** Current wind speed in m/s (hover to see current wind gust speed)